createdAt,value
2018-09-08T00:01:28.240Z,3.50
2018-09-08T00:04:03.019Z,3.37
2018-09-08T00:06:37.698Z,3.53
2018-09-08T00:09:12.215Z,3.33
2018-09-08T00:11:46.912Z,3.27
2018-09-08T00:14:21.500Z,3.60
2018-09-08T00:17:01.559Z,3.60
2018-09-08T00:19:41.397Z,3.23
2018-09-08T00:22:21.248Z,3.00
2018-09-08T00:25:01.193Z,2.90
2018-09-08T00:27:41.527Z,3.37
2018-09-08T00:30:16.537Z,3.10
2018-09-08T00:32:51.083Z,2.87
2018-09-08T00:35:25.503Z,3.33
2018-09-08T00:37:59.989Z,3.17
2018-09-08T00:40:34.729Z,3.00
2018-09-08T00:43:09.144Z,3.17
2018-09-08T00:45:43.724Z,3.80
2018-09-08T00:48:18.170Z,4.10
2018-09-08T00:50:53.184Z,3.00
2018-09-08T00:53:27.979Z,3.03
2018-09-08T00:56:02.778Z,3.23
2018-09-08T00:58:37.270Z,3.20
2018-09-08T01:01:12.026Z,3.10
2018-09-08T01:03:46.614Z,3.13
2018-09-08T01:06:21.274Z,3.33
2018-09-08T01:08:55.881Z,3.30
2018-09-08T01:11:30.438Z,2.80
2018-09-08T01:14:05.322Z,3.40
2018-09-08T01:16:40.000Z,3.13
2018-09-08T01:19:15.870Z,3.17
2018-09-08T01:21:50.574Z,2.43
2018-09-08T01:24:25.206Z,2.93
2018-09-08T01:26:59.728Z,2.90
2018-09-08T01:29:34.853Z,3.43
2018-09-08T01:32:09.719Z,3.00
2018-09-08T01:34:44.342Z,3.30
2018-09-08T01:37:18.932Z,2.50
2018-09-08T01:39:53.617Z,3.30
2018-09-08T01:42:28.199Z,3.40
2018-09-08T01:45:02.777Z,3.40
2018-09-08T01:47:37.367Z,3.20
2018-09-08T01:50:12.085Z,3.10
2018-09-08T01:52:46.636Z,3.67
2018-09-08T01:55:21.256Z,3.27
2018-09-08T01:57:55.768Z,3.07
2018-09-08T02:00:30.411Z,3.13
2018-09-08T02:03:05.157Z,3.43
2018-09-08T02:05:39.918Z,3.30
2018-09-08T02:08:14.976Z,3.20
2018-09-08T02:10:49.912Z,3.07
2018-09-08T02:13:24.279Z,2.83
2018-09-08T02:15:58.815Z,3.30
2018-09-08T02:18:33.420Z,3.57
2018-09-08T02:21:07.979Z,3.40
2018-09-08T02:23:47.769Z,3.60
2018-09-08T02:26:22.346Z,3.47
2018-09-08T02:28:56.993Z,3.73
2018-09-08T02:31:31.508Z,3.97
2018-09-08T02:34:06.193Z,3.90
2018-09-08T02:36:40.628Z,3.30
2018-09-08T02:39:15.049Z,3.30
2018-09-08T02:41:49.629Z,3.60
2018-09-08T02:44:24.186Z,3.83
2018-09-08T02:46:58.868Z,3.20
2018-09-08T02:50:42.267Z,3.40
2018-09-08T02:53:15.707Z,4.00
2018-09-08T02:55:49.120Z,3.70
2018-09-08T02:58:22.608Z,3.37
2018-09-08T03:00:56.165Z,3.60
2018-09-08T03:03:29.657Z,3.40
2018-09-08T03:06:03.151Z,3.37
2018-09-08T03:08:36.624Z,3.90
2018-09-08T03:11:10.160Z,4.43
2018-09-08T03:13:43.618Z,3.97
2018-09-08T03:16:17.037Z,3.73
2018-09-08T03:18:50.353Z,3.83
2018-09-08T03:21:23.900Z,4.07
2018-09-08T03:23:57.353Z,4.17
2018-09-08T03:26:30.960Z,3.97
2018-09-08T03:29:04.441Z,4.13
2018-09-08T03:31:38.759Z,4.00
2018-09-08T03:34:12.376Z,3.73
2018-09-08T03:36:45.958Z,4.30
2018-09-08T03:39:19.626Z,3.83
2018-09-08T03:41:53.117Z,3.97
2018-09-08T03:44:26.613Z,4.07
2018-09-08T03:47:00.081Z,4.17
2018-09-08T03:49:33.540Z,4.37
2018-09-08T03:52:06.981Z,4.07
2018-09-08T03:54:40.488Z,3.50
2018-09-08T03:57:13.989Z,4.27
2018-09-08T03:59:47.590Z,3.87
2018-09-08T04:02:21.138Z,4.27
2018-09-08T04:04:55.741Z,3.97
2018-09-08T04:07:30.594Z,3.90
2018-09-08T04:10:05.448Z,4.13
2018-09-08T04:12:40.124Z,4.10
2018-09-08T04:15:14.861Z,3.93
2018-09-08T04:17:49.563Z,4.03
2018-09-08T04:20:24.177Z,3.57
2018-09-08T04:22:58.632Z,3.63
2018-09-08T04:25:33.242Z,3.57
2018-09-08T04:28:07.761Z,3.77
2018-09-08T04:30:42.577Z,3.93
2018-09-08T04:33:16.912Z,3.47
2018-09-08T04:35:51.413Z,3.90
2018-09-08T04:38:25.979Z,3.90
2018-09-08T04:41:00.784Z,4.00
2018-09-08T04:43:35.402Z,3.60
2018-09-08T04:46:10.109Z,3.87
2018-09-08T04:48:44.776Z,4.10
2018-09-08T04:51:19.366Z,4.07
2018-09-08T04:53:53.988Z,3.93
2018-09-08T04:56:28.752Z,4.03
2018-09-08T04:59:03.337Z,4.30
2018-09-08T05:01:37.967Z,4.30
2018-09-08T05:04:29.003Z,3.63
2018-09-08T05:07:03.741Z,4.40
2018-09-08T05:09:38.180Z,4.30
2018-09-08T05:12:13.380Z,4.30
2018-09-08T05:14:47.816Z,4.10
2018-09-08T05:17:22.832Z,4.17
2018-09-08T05:19:57.466Z,4.47
2018-09-08T05:22:32.104Z,4.33
2018-09-08T05:25:06.505Z,4.23
2018-09-08T05:27:41.045Z,4.27
2018-09-08T05:30:15.764Z,3.77
2018-09-08T05:32:50.242Z,4.23
2018-09-08T05:35:24.905Z,3.83
2018-09-08T05:37:59.682Z,3.93
2018-09-08T05:40:34.345Z,4.63
2018-09-08T05:43:09.076Z,4.30
2018-09-08T05:45:43.767Z,4.03
2018-09-08T05:48:18.294Z,4.60
2018-09-08T05:50:52.773Z,3.77
2018-09-08T05:53:27.418Z,4.60
2018-09-08T05:56:02.188Z,3.87
2018-09-08T05:58:37.297Z,3.90
2018-09-08T06:01:11.989Z,4.23
2018-09-08T06:03:46.658Z,3.33
2018-09-08T06:06:21.293Z,3.50
2018-09-08T06:08:55.880Z,3.43
2018-09-08T06:11:30.509Z,3.50
2018-09-08T06:14:05.010Z,2.73
2018-09-08T06:16:40.297Z,2.97
2018-09-08T06:19:15.521Z,2.43
2018-09-08T06:21:50.167Z,2.77
2018-09-08T06:24:24.848Z,2.63
2018-09-08T06:26:59.389Z,2.70
2018-09-08T06:29:34.073Z,2.63
2018-09-08T06:32:08.836Z,2.93
2018-09-08T06:34:43.369Z,2.30
2018-09-08T06:37:17.985Z,3.00
2018-09-08T06:39:52.609Z,2.37
2018-09-08T06:42:27.257Z,2.23
2018-09-08T06:45:01.947Z,2.60
2018-09-08T06:47:36.486Z,2.57
2018-09-08T06:50:11.189Z,3.00
2018-09-08T06:52:45.810Z,4.07
2018-09-08T06:55:20.414Z,2.73
2018-09-08T06:57:55.397Z,2.60
2018-09-08T07:00:30.142Z,2.50
2018-09-08T07:03:04.762Z,2.77
2018-09-08T07:05:39.344Z,3.40
2018-09-08T07:08:14.150Z,2.23
2018-09-08T07:10:48.629Z,2.40
2018-09-08T07:13:23.229Z,2.90
2018-09-08T07:15:57.662Z,2.73
2018-09-08T07:18:32.246Z,2.00
2018-09-08T07:21:06.809Z,2.60
2018-09-08T07:23:41.353Z,2.00
2018-09-08T07:26:15.877Z,2.50
2018-09-08T07:28:50.664Z,2.20
2018-09-08T07:31:25.228Z,2.90
2018-09-08T07:33:59.737Z,2.13
2018-09-08T07:36:34.316Z,2.40
2018-09-08T07:39:10.291Z,2.10
2018-09-08T07:41:45.013Z,1.83
2018-09-08T07:44:19.753Z,2.47
2018-09-08T07:46:54.229Z,2.20
2018-09-08T07:49:28.764Z,2.47
2018-09-08T07:52:03.637Z,2.23
2018-09-08T07:54:38.247Z,2.37
2018-09-08T07:57:12.862Z,2.23
2018-09-08T07:59:47.597Z,2.30
2018-09-08T08:02:22.201Z,3.10
2018-09-08T08:04:56.732Z,2.27
2018-09-08T08:07:31.268Z,2.50
2018-09-08T08:10:05.912Z,2.83
2018-09-08T08:12:40.555Z,2.80
2018-09-08T08:15:15.534Z,2.53
2018-09-08T08:17:51.027Z,2.90
2018-09-08T08:20:25.926Z,2.57
2018-09-08T08:23:00.871Z,2.63
2018-09-08T08:25:35.509Z,2.57
2018-09-08T08:28:10.414Z,2.07
2018-09-08T08:30:45.896Z,2.27
2018-09-08T08:33:20.618Z,2.50
2018-09-08T08:35:55.278Z,2.70
2018-09-08T08:38:29.962Z,2.40
2018-09-08T08:41:04.590Z,2.60
2018-09-08T08:43:39.212Z,2.67
2018-09-08T08:46:13.794Z,2.40
2018-09-08T08:48:48.528Z,2.70
2018-09-08T08:51:34.537Z,2.83
2018-09-08T08:54:21.819Z,2.77
2018-09-08T08:56:56.279Z,2.90
2018-09-08T08:59:30.818Z,2.90
2018-09-08T09:02:05.463Z,2.40
2018-09-08T09:04:40.316Z,2.47
2018-09-08T09:07:16.529Z,2.87
2018-09-08T09:09:50.617Z,2.57
2018-09-08T09:12:25.329Z,3.33
2018-09-08T09:14:59.835Z,2.60
2018-09-08T09:17:34.561Z,3.57
2018-09-08T09:20:20.481Z,2.80
2018-09-08T09:23:06.670Z,2.47
2018-09-08T09:25:41.529Z,2.37
2018-09-08T09:28:16.424Z,2.73
2018-09-08T09:30:51.206Z,2.70
2018-09-08T09:33:25.937Z,2.70
2018-09-08T09:36:00.634Z,3.00
2018-09-08T09:38:35.093Z,2.50
2018-09-08T09:41:09.858Z,3.07
2018-09-08T09:43:44.404Z,2.70
2018-09-08T09:46:19.068Z,2.57
2018-09-08T09:48:53.649Z,3.33
2018-09-08T09:51:28.303Z,2.80
2018-09-08T09:54:02.748Z,2.87
2018-09-08T09:56:37.272Z,2.77
2018-09-08T09:59:11.874Z,2.87
2018-09-08T10:01:51.606Z,2.50
2018-09-08T10:04:26.247Z,2.23
2018-09-08T10:07:00.940Z,2.30
2018-09-08T10:09:35.761Z,2.40
2018-09-08T10:12:10.561Z,2.40
2018-09-08T10:14:45.788Z,2.30
2018-09-08T10:17:25.286Z,2.40
2018-09-08T10:20:00.190Z,2.07
2018-09-08T10:22:34.810Z,2.40
2018-09-08T10:25:12.511Z,6.00
2018-09-08T10:27:47.874Z,4.90
2018-09-08T10:30:22.547Z,1.90
2018-09-08T10:32:57.164Z,2.00
2018-09-08T10:35:31.749Z,1.97
2018-09-08T10:38:06.968Z,1.90
2018-09-08T10:40:41.523Z,2.23
2018-09-08T10:43:16.041Z,2.47
2018-09-08T10:45:50.470Z,2.20
2018-09-08T10:48:24.977Z,3.33
2018-09-08T10:51:09.480Z,3.77
2018-09-08T10:53:43.997Z,1.90
2018-09-08T10:56:18.822Z,2.10
2018-09-08T10:58:53.984Z,6.17
2018-09-08T11:01:29.745Z,2.63
2018-09-08T11:04:04.360Z,2.03
2018-09-08T11:06:39.141Z,2.50
2018-09-08T11:09:13.670Z,2.17
2018-09-08T11:11:48.415Z,2.27
2018-09-08T11:14:23.243Z,2.70
2018-09-08T11:16:57.777Z,2.23
2018-09-08T11:19:32.280Z,2.07
2018-09-08T11:22:06.912Z,2.00
2018-09-08T11:24:41.626Z,3.63
2018-09-08T11:27:16.869Z,2.57
2018-09-08T11:29:51.654Z,2.10
2018-09-08T11:32:26.598Z,1.40
2018-09-08T11:35:00.961Z,1.60
2018-09-08T11:37:36.283Z,1.70
2018-09-08T11:40:10.821Z,1.70
2018-09-08T11:42:45.317Z,1.60
2018-09-08T11:45:19.877Z,1.30
2018-09-08T11:47:54.302Z,1.83
2018-09-08T11:50:29.039Z,1.50
2018-09-08T11:53:03.714Z,1.50
2018-09-08T11:55:38.397Z,1.50
2018-09-08T11:58:12.916Z,1.90
2018-09-08T12:00:50.326Z,1.60
2018-09-08T12:03:25.673Z,1.60
2018-09-08T12:06:00.577Z,2.30
2018-09-08T12:08:35.114Z,1.47
2018-09-08T12:11:10.187Z,1.60
2018-09-08T12:13:44.808Z,1.70
2018-09-08T12:16:19.386Z,1.50
2018-09-08T12:18:54.085Z,1.90
2018-09-08T12:21:29.035Z,1.90
2018-09-08T12:24:03.568Z,1.73
2018-09-08T12:26:38.228Z,2.20
2018-09-08T12:29:13.261Z,2.00
2018-09-08T12:31:47.824Z,1.80
2018-09-08T12:34:22.290Z,1.73
2018-09-08T12:36:57.014Z,2.00
2018-09-08T12:39:31.980Z,1.83
2018-09-08T12:42:06.745Z,2.10
2018-09-08T12:44:41.276Z,1.80
2018-09-08T12:47:15.782Z,1.80
2018-09-08T12:49:50.964Z,1.80
2018-09-08T12:52:25.625Z,1.90
2018-09-08T12:55:00.282Z,1.70
2018-09-08T12:57:34.797Z,2.13
2018-09-08T13:00:09.329Z,2.00
2018-09-08T13:02:44.046Z,2.10
2018-09-08T13:05:18.673Z,1.87
2018-09-08T13:07:53.165Z,2.23
2018-09-08T13:10:28.005Z,1.93
2018-09-08T13:13:02.553Z,1.83
2018-09-08T13:15:37.593Z,2.33
2018-09-08T13:18:12.149Z,2.07
2018-09-08T13:20:47.104Z,2.10
2018-09-08T13:23:22.101Z,2.00
2018-09-08T13:25:56.816Z,2.03
2018-09-08T13:28:31.568Z,1.80
2018-09-08T13:31:06.229Z,2.03
2018-09-08T13:33:40.853Z,2.23
2018-09-08T13:36:15.387Z,2.10
2018-09-08T13:38:50.014Z,2.10
2018-09-08T13:41:24.481Z,2.10
2018-09-08T13:43:59.688Z,2.30
2018-09-08T13:46:34.156Z,1.60
2018-09-08T13:49:10.908Z,2.03
2018-09-08T13:51:45.721Z,2.00
2018-09-08T13:54:20.296Z,1.70
2018-09-08T13:56:54.849Z,1.83
2018-09-08T13:59:29.494Z,2.43
2018-09-08T14:02:04.437Z,2.00
2018-09-08T14:04:39.140Z,2.10
2018-09-08T14:07:13.709Z,2.10
2018-09-08T14:09:48.201Z,2.67
2018-09-08T14:12:22.780Z,2.10
2018-09-08T14:14:57.248Z,2.10
2018-09-08T14:17:31.689Z,2.17
2018-09-08T14:20:06.685Z,2.30
2018-09-08T14:22:41.256Z,2.27
2018-09-08T14:25:15.760Z,2.00
2018-09-08T14:27:50.354Z,1.97
2018-09-08T14:30:25.019Z,1.80
2018-09-08T14:32:59.893Z,1.63
2018-09-08T14:35:34.451Z,1.73
2018-09-08T14:38:08.977Z,1.90
2018-09-08T14:40:43.606Z,2.00
2018-09-08T14:43:18.102Z,2.23
2018-09-08T14:45:52.532Z,3.00
2018-09-08T14:48:26.958Z,2.30
2018-09-08T14:51:01.521Z,2.60
2018-09-08T14:53:36.052Z,2.63
2018-09-08T14:56:10.605Z,2.30
2018-09-08T14:58:45.275Z,2.30
2018-09-08T15:01:20.149Z,2.20
2018-09-08T15:03:54.834Z,2.30
2018-09-08T15:06:29.252Z,2.30
2018-09-08T15:09:05.569Z,1.77
2018-09-08T15:11:40.078Z,2.20
2018-09-08T15:14:14.962Z,2.27
2018-09-08T15:16:49.444Z,2.20
2018-09-08T15:19:24.042Z,2.70
2018-09-08T15:21:58.813Z,2.30
2018-09-08T15:24:33.507Z,2.20
2018-09-08T15:27:08.001Z,2.30
2018-09-08T15:29:42.642Z,2.10
2018-09-08T15:32:17.224Z,2.10
2018-09-08T15:34:51.877Z,2.20
2018-09-08T15:37:26.621Z,1.80
2018-09-08T15:40:01.172Z,1.90
2018-09-08T15:42:35.739Z,1.73
2018-09-08T15:45:10.404Z,2.07
2018-09-08T15:47:45.113Z,2.30
2018-09-08T15:50:19.604Z,2.20
2018-09-08T15:52:54.628Z,1.90
2018-09-08T15:55:29.220Z,1.67
2018-09-08T15:58:03.970Z,1.93
2018-09-08T16:00:38.606Z,1.97
2018-09-08T16:03:13.205Z,2.20
2018-09-08T16:05:47.844Z,2.27
2018-09-08T16:08:22.599Z,2.90
2018-09-08T16:10:57.202Z,3.17
2018-09-08T16:13:31.902Z,2.10
2018-09-08T16:16:06.490Z,2.30
2018-09-08T16:18:41.150Z,2.10
2018-09-08T16:21:15.813Z,2.47
2018-09-08T16:23:50.375Z,2.17
2018-09-08T16:26:24.908Z,2.13
2018-09-08T16:28:59.413Z,1.90
2018-09-08T16:31:33.988Z,2.00
2018-09-08T16:34:08.890Z,1.63
2018-09-08T16:40:02.306Z,2.10
2018-09-08T16:42:36.847Z,2.20
2018-09-08T16:45:11.664Z,2.47
2018-09-08T16:47:46.306Z,2.13
2018-09-08T16:50:20.843Z,1.90
2018-09-08T16:52:55.430Z,1.70
2018-09-08T16:55:30.241Z,1.90
2018-09-08T16:58:05.036Z,1.83
2018-09-08T17:00:39.480Z,2.00
2018-09-08T17:03:14.021Z,1.83
2018-09-08T17:05:48.561Z,1.97
2018-09-08T17:08:23.300Z,1.83
2018-09-08T17:10:57.996Z,2.03
2018-09-08T17:13:33.193Z,2.03
2018-09-08T17:16:07.722Z,2.10
2018-09-08T17:18:42.205Z,1.80
2018-09-08T17:21:16.813Z,2.10
2018-09-08T17:23:51.594Z,2.00
2018-09-08T17:26:26.195Z,2.20
2018-09-08T17:29:00.762Z,2.57
2018-09-08T17:31:35.248Z,2.20
2018-09-08T17:34:17.082Z,2.77
2018-09-08T17:36:51.637Z,2.07
2018-09-08T17:39:26.145Z,2.40
2018-09-08T17:42:00.845Z,1.97
2018-09-08T17:44:35.405Z,2.13
2018-09-08T17:47:10.405Z,2.40
2018-09-08T17:49:45.049Z,2.47
2018-09-08T17:52:19.523Z,2.50
2018-09-08T17:54:54.265Z,2.50
2018-09-08T17:57:28.972Z,2.30
2018-09-08T18:00:03.504Z,3.20
2018-09-08T18:02:38.473Z,2.80
2018-09-08T18:05:13.273Z,2.73
2018-09-08T18:07:47.885Z,2.80
2018-09-08T18:10:22.402Z,3.37
2018-09-08T18:12:57.449Z,3.13
2018-09-08T18:15:31.845Z,2.90
2018-09-08T18:18:06.366Z,2.63
2018-09-08T18:20:40.980Z,2.97
2018-09-08T18:23:15.657Z,4.03
2018-09-08T18:25:50.237Z,3.83
2018-09-08T18:28:24.826Z,3.27
2018-09-08T18:30:59.449Z,2.97
2018-09-08T18:33:34.141Z,3.17
2018-09-08T18:36:09.951Z,3.07
2018-09-08T18:38:44.709Z,3.10
2018-09-08T18:41:19.274Z,3.97
2018-09-08T18:43:53.738Z,3.13
2018-09-08T18:46:28.341Z,3.40
2018-09-08T18:49:02.925Z,3.20
2018-09-08T18:51:37.981Z,3.90
2018-09-08T18:54:12.841Z,3.47
2018-09-08T18:56:47.508Z,3.77
2018-09-08T18:59:22.197Z,3.40
2018-09-08T19:01:57.086Z,3.57
2018-09-08T19:04:31.621Z,3.40
2018-09-08T19:07:06.280Z,3.70
2018-09-08T19:09:40.676Z,3.97
2018-09-08T19:12:15.125Z,3.40
2018-09-08T19:14:55.040Z,3.70
2018-09-08T19:17:29.729Z,4.97
2018-09-08T19:20:09.556Z,4.87
2018-09-08T19:22:44.198Z,3.90
2018-09-08T19:25:18.764Z,4.33
2018-09-08T19:27:53.445Z,3.77
2018-09-08T19:30:28.441Z,3.50
2018-09-08T19:33:03.052Z,4.17
2018-09-08T19:35:38.933Z,3.47
2018-09-08T19:38:13.558Z,4.30
2018-09-08T19:40:48.848Z,3.43
2018-09-08T19:43:23.465Z,3.70
2018-09-08T19:45:58.129Z,3.17
2018-09-08T19:48:32.843Z,3.30
2018-09-08T19:51:07.561Z,2.77
2018-09-08T19:53:47.511Z,3.30
2018-09-08T19:56:26.317Z,4.43
2018-09-08T19:59:01.301Z,7.03
2018-09-08T20:01:36.077Z,6.90
2018-09-08T20:04:10.729Z,6.63
2018-09-08T20:06:45.229Z,6.50
2018-09-08T20:09:19.913Z,6.37
2018-09-08T20:11:54.457Z,8.10
2018-09-08T20:14:29.174Z,7.23
2018-09-08T20:17:03.641Z,8.00
2018-09-08T20:19:52.148Z,7.40
2018-09-08T20:22:26.633Z,7.23
2018-09-08T20:25:01.198Z,5.40
2018-09-08T20:27:35.769Z,5.10
2018-09-08T20:30:10.516Z,5.03
2018-09-08T20:32:45.101Z,4.13
2018-09-08T20:35:19.727Z,4.53
2018-09-08T20:37:54.361Z,4.90
2018-09-08T20:40:28.936Z,4.90
2018-09-08T20:43:03.369Z,4.27
2018-09-08T20:45:38.014Z,4.90
2018-09-08T20:48:12.656Z,3.90
2018-09-08T20:50:47.213Z,4.60
2018-09-08T20:53:21.797Z,4.17
2018-09-08T20:55:56.293Z,4.17
2018-09-08T20:58:30.885Z,4.40
2018-09-08T21:01:05.345Z,4.40
2018-09-08T21:03:40.094Z,4.10
2018-09-08T21:06:14.705Z,4.67
2018-09-08T21:08:49.732Z,3.77
2018-09-08T21:11:24.354Z,4.10
2018-09-08T21:13:58.841Z,4.07
2018-09-08T21:16:33.310Z,3.67
2018-09-08T21:19:07.893Z,3.63
2018-09-08T21:21:42.549Z,3.70
2018-09-08T21:24:17.485Z,4.37
2018-09-08T21:26:52.121Z,3.80
2018-09-08T21:29:26.730Z,3.83
2018-09-08T21:32:01.345Z,4.13
2018-09-08T21:34:36.017Z,4.10
2018-09-08T21:37:10.656Z,4.40
2018-09-08T21:39:45.125Z,4.50
2018-09-08T21:42:19.794Z,4.20
2018-09-08T21:44:54.269Z,4.60
2018-09-08T21:47:28.875Z,4.30
2018-09-08T21:50:03.395Z,4.63
2018-09-08T21:52:38.062Z,4.10
2018-09-08T21:55:12.788Z,4.10
2018-09-08T21:57:47.408Z,3.60
2018-09-08T22:00:22.130Z,4.07
2018-09-08T22:02:56.657Z,3.73
2018-09-08T22:05:31.133Z,4.07
2018-09-08T22:08:05.778Z,4.60
2018-09-08T22:10:40.440Z,4.23
2018-09-08T22:13:15.210Z,4.17
2018-09-08T22:15:50.054Z,4.13
2018-09-08T22:18:24.630Z,4.30
2018-09-08T22:20:59.157Z,4.27
2018-09-08T22:23:33.711Z,4.20
2018-09-08T22:26:08.368Z,4.70
2018-09-08T22:28:43.016Z,4.27
2018-09-08T22:31:17.492Z,3.70
2018-09-08T22:33:52.102Z,5.13
2018-09-08T22:36:27.101Z,4.50
2018-09-08T22:39:01.615Z,4.50
2018-09-08T22:41:36.140Z,4.40
2018-09-08T22:44:10.738Z,4.47
2018-09-08T22:46:45.344Z,4.03
2018-09-08T22:49:20.093Z,4.87
2018-09-08T22:51:54.668Z,4.97
2018-09-08T22:54:29.118Z,5.77
2018-09-08T22:57:03.802Z,5.37
2018-09-08T22:59:38.517Z,5.43
2018-09-08T23:02:13.001Z,5.00
2018-09-08T23:04:47.584Z,4.90
2018-09-08T23:07:22.173Z,5.10
2018-09-08T23:09:56.708Z,4.77
2018-09-08T23:12:31.435Z,4.67
2018-09-08T23:15:06.616Z,4.53
2018-09-08T23:17:41.273Z,4.80
2018-09-08T23:20:15.842Z,4.57
2018-09-08T23:22:50.542Z,4.93
2018-09-08T23:25:25.529Z,5.20
2018-09-08T23:28:00.112Z,4.60
2018-09-08T23:30:34.590Z,5.30
2018-09-08T23:33:09.125Z,4.43
2018-09-08T23:35:43.741Z,4.57
2018-09-08T23:38:18.358Z,4.80
2018-09-08T23:40:53.055Z,4.70
2018-09-08T23:43:27.561Z,4.87
2018-09-08T23:46:02.009Z,4.77
2018-09-08T23:48:36.645Z,4.77
2018-09-08T23:51:11.373Z,4.90
2018-09-08T23:53:45.944Z,4.83
2018-09-08T23:56:20.630Z,5.07
2018-09-08T23:58:55.213Z,5.07
